Time;durP1;ratioP1;P1;durP2;ratioP2;P2;SDS_P1;SDS_P2;PMS_P1;PMS_P2;Temp;Humidity;BMP_temperature;BMP_pressure;BME280_temperature;BME280_humidity;BME280_pressure;Samples;Min_cycle;Max_cycle;Signal;HPM_P1;HPM_P2
2021/06/07 00:01:51;;;;;;;6.38;2.40;;;18.30;64.30;;;;;;5075226;28;20054;-56
2021/06/07 00:04:18;;;;;;;4.63;2.13;;;18.40;63.60;;;;;;5075740;28;20020;-52
2021/06/07 00:06:45;;;;;;;5.43;2.40;;;18.60;63.30;;;;;;5075421;28;20021;-57
2021/06/07 00:09:15;;;;;;;5.82;2.08;;;18.70;61.90;;;;;;5075651;28;20363;-56
2021/06/07 00:11:45;;;;;;;6.05;2.30;;;18.80;62.30;;;;;;5057270;28;20028;-53
2021/06/07 00:14:16;;;;;;;4.32;2.13;;;18.90;62.20;;;;;;5074890;28;20124;-61
2021/06/07 00:16:44;;;;;;;3.58;2.13;;;19.00;61.30;;;;;;5074541;28;20025;-57
2021/06/07 00:19:16;;;;;;;10.38;2.40;;;19.10;61.80;;;;;;5041129;28;20474;-55
2021/06/07 00:21:43;;;;;;;;;;;19.30;61.40;;;;;;5076110;28;20025;-54
2021/06/07 00:24:11;;;;;;;3.28;2.17;;;19.40;61.10;;;;;;5075118;28;19991;-53
2021/06/07 00:26:39;;;;;;;5.25;2.40;;;19.50;61.20;;;;;;5074533;28;20029;-52
2021/06/07 00:29:07;;;;;;;3.83;1.85;;;19.60;59.90;;;;;;5075407;28;20074;-45
2021/06/07 00:31:36;;;;;;;3.40;1.88;;;19.80;60.70;;;;;;5040302;28;20029;-52
2021/06/07 00:34:04;;;;;;;4.30;2.40;;;19.80;59.00;;;;;;5074791;28;20036;-58
2021/06/07 00:36:31;;;;;;;2.65;2.08;;;20.00;59.70;;;;;;5074591;28;20033;-62
2021/06/07 00:38:59;;;;;;;5.60;2.05;;;20.10;59.50;;;;;;5074559;28;20020;-63
2021/06/07 00:41:26;;;;;;;3.78;2.13;;;20.30;58.20;;;;;;5074850;28;20044;-60
2021/06/07 00:44:00;;;;;;;6.95;1.92;;;20.40;58.70;;;;;;5074376;28;20451;-60
2021/06/07 00:46:27;;;;;;;4.18;2.08;;;20.40;57.50;;;;;;5074592;28;20503;-59
2021/06/07 00:48:56;;;;;;;3.85;1.80;;;20.40;58.40;;;;;;5074349;28;20104;-61
2021/06/07 00:51:23;;;;;;;3.15;2.00;;;20.50;57.60;;;;;;5074157;28;20387;-63
2021/06/07 00:53:51;;;;;;;15.68;5.68;;;20.50;58.20;;;;;;5074139;28;20029;-61
2021/06/07 00:56:18;;;;;;;8.25;2.47;;;20.60;57.30;;;;;;5074211;28;20063;-52
2021/06/07 00:58:47;;;;;;;2.22;1.67;;;20.70;57.60;;;;;;5074206;28;20021;-62
2021/06/07 01:01:24;;;;;;;2.10;1.40;;;20.60;57.90;;;;;;5074453;28;20016;-64
2021/06/07 01:03:53;;;;;;;3.03;1.83;;;20.50;57.50;;;;;;5074116;28;20020;-62
2021/06/07 01:06:21;;;;;;;4.05;2.05;;;20.50;58.30;;;;;;5073946;28;20417;-62
2021/06/07 01:08:49;;;;;;;4.72;1.90;;;20.50;58.60;;;;;;5074400;28;20036;-54
2021/06/07 01:11:18;;;;;;;4.03;2.20;;;20.60;57.50;;;;;;5073919;28;20494;-63
2021/06/07 01:13:46;;;;;;;2.88;1.65;;;20.60;58.60;;;;;;5056149;28;20131;-49
2021/06/07 01:16:14;;;;;;;3.28;1.42;;;20.70;58.50;;;;;;5074419;28;20152;-61
2021/06/07 01:18:41;;;;;;;6.22;1.80;;;20.90;57.80;;;;;;5073857;28;20032;-50
2021/06/07 01:21:11;;;;;;;6.82;1.52;;;21.10;56.40;;;;;;5073886;28;20047;-61
2021/06/07 01:23:41;;;;;;;10.43;1.98;;;21.10;56.70;;;;;;5073826;28;20029;-64
2021/06/07 01:26:10;;;;;;;3.05;1.50;;;21.20;56.30;;;;;;5073703;28;20119;-62
2021/06/07 01:28:39;;;;;;;3.28;2.00;;;21.20;57.10;;;;;;5073720;28;20028;-61
2021/06/07 01:31:06;;;;;;;3.28;1.63;;;21.30;56.90;;;;;;5074120;28;20017;-60
2021/06/07 01:33:35;;;;;;;2.10;1.33;;;21.20;56.30;;;;;;5073762;28;20070;-57
2021/06/07 01:36:04;;;;;;;3.33;1.70;;;21.30;57.20;;;;;;5073534;28;20123;-60
2021/06/07 01:38:32;;;;;;;4.65;2.38;;;21.40;57.10;;;;;;5073605;28;20028;-56
2021/06/07 01:41:06;;;;;;;1.83;1.25;;;21.40;56.40;;;;;;5055928;28;20051;-64
2021/06/07 01:43:35;;;;;;;3.22;1.92;;;21.50;56.60;;;;;;5073594;28;20028;-62
2021/06/07 01:46:03;;;;;;;6.53;1.75;;;21.50;55.80;;;;;;5073729;28;20052;-62
2021/06/07 01:48:31;;;;;;;2.38;1.48;;;21.60;55.60;;;;;;5073426;28;20100;-61
2021/06/07 01:51:00;;;;;;;8.32;2.25;;;21.60;56.40;;;;;;5072838;28;20104;-62
2021/06/07 01:53:30;;;;;;;7.80;2.05;;;21.60;56.20;;;;;;5072966;28;20482;-60
2021/06/07 01:56:04;;;;;;;5.97;1.40;;;21.60;56.20;;;;;;5072953;28;20033;-57
2021/06/07 01:58:32;;;;;;;2.80;1.40;;;21.50;56.60;;;;;;5073064;28;20056;-63
2021/06/07 02:01:07;;;;;;;2.85;1.40;;;21.60;56.50;;;;;;5063457;28;20028;-49
2021/06/07 02:03:35;;;;;;;4.93;2.03;;;21.60;56.50;;;;;;5070387;28;20120;-51
2021/06/07 02:06:06;;;;;;;13.40;2.50;;;21.80;56.00;;;;;;5069815;28;20366;-56
2021/06/07 02:08:34;;;;;;;3.22;1.30;;;21.90;55.20;;;;;;5068769;28;20025;-52
2021/06/07 02:11:06;;;;;;;3.13;1.27;;;22.00;54.90;;;;;;5070067;28;20039;-51
2021/06/07 02:13:34;;;;;;;2.13;1.17;;;21.90;55.40;;;;;;5069254;28;20348;-57
2021/06/07 02:16:16;;;;;;;3.65;1.58;;;21.80;56.20;;;;;;5070431;28;20043;-46
2021/06/07 02:18:44;;;;;;;2.03;1.10;;;21.80;55.20;;;;;;5067317;28;20470;-43
2021/06/07 02:21:17;;;;;;;3.00;1.10;;;21.90;55.70;;;;;;5070306;28;20560;-45
2021/06/07 02:23:46;;;;;;;4.35;1.38;;;22.00;55.90;;;;;;5070083;28;20115;-52
2021/06/07 02:26:15;;;;;;;6.65;1.52;;;21.90;55.80;;;;;;5070326;28;20494;-61
2021/06/07 02:29:04;;;;;;;3.38;1.27;;;22.00;55.10;;;;;;5071897;28;20132;-58
2021/06/07 02:31:32;;;;;;;4.53;1.48;;;21.90;56.10;;;;;;5072372;28;20024;-65
2021/06/07 02:34:00;;;;;;;4.40;1.42;;;21.90;55.90;;;;;;5072244;28;20028;-61
2021/06/07 02:36:31;;;;;;;2.88;1.10;;;22.00;56.20;;;;;;5072435;28;20021;-61
2021/06/07 02:38:59;;;;;;;5.47;2.03;;;22.00;56.40;;;;;;5072477;28;20103;-58
2021/06/07 02:41:27;;;;;;;3.30;1.40;;;22.10;55.10;;;;;;5072091;28;20098;-60
2021/06/07 02:43:55;;;;;;;6.85;1.30;;;22.20;55.50;;;;;;5071858;28;20028;-63
2021/06/07 02:46:23;;;;;;;3.00;1.60;;;22.20;54.80;;;;;;5072293;28;20021;-61
2021/06/07 02:48:50;;;;;;;1.88;1.25;;;22.30;54.60;;;;;;5072492;28;20107;-56
2021/06/07 02:51:18;;;;;;;2.28;1.20;;;22.10;55.30;;;;;;5071401;28;20020;-60
2021/06/07 02:53:48;;;;;;;2.55;1.10;;;22.10;55.60;;;;;;5071978;28;20040;-56
2021/06/07 02:56:16;;;;;;;3.30;1.30;;;22.00;55.70;;;;;;5072031;28;20502;-60
2021/06/07 02:58:44;;;;;;;4.65;1.60;;;22.10;55.60;;;;;;5053676;28;20032;-54
2021/06/07 03:01:12;;;;;;;3.50;1.25;;;22.10;55.50;;;;;;5072282;28;20029;-65
2021/06/07 03:03:40;;;;;;;4.20;1.75;;;22.10;56.10;;;;;;5072255;28;20107;-58
2021/06/07 03:06:08;;;;;;;4.50;1.63;;;22.20;55.80;;;;;;5072109;28;20036;-64
2021/06/07 03:08:36;;;;;;;2.75;0.90;;;22.10;55.60;;;;;;5071973;28;20028;-60
2021/06/07 03:11:09;;;;;;;12.70;2.35;;;22.30;55.00;;;;;;5071905;28;20024;-56
2021/06/07 03:13:39;;;;;;;2.83;1.23;;;22.50;54.50;;;;;;5071363;28;20407;-58
2021/06/07 03:16:08;;;;;;;4.10;1.45;;;22.50;55.20;;;;;;5071777;28;20436;-57
2021/06/07 03:18:35;;;;;;;5.53;1.50;;;22.50;55.10;;;;;;5071705;28;20033;-52
2021/06/07 03:21:03;;;;;;;2.22;1.20;;;22.50;55.00;;;;;;5071797;28;20112;-52
2021/06/07 03:23:34;;;;;;;6.65;1.40;;;22.40;55.40;;;;;;5072023;28;20033;-60
2021/06/07 03:26:02;;;;;;;3.53;1.25;;;22.40;55.10;;;;;;5071951;28;20032;-60
2021/06/07 03:28:29;;;;;;;2.03;1.50;;;22.40;55.10;;;;;;5071946;28;20021;-60
2021/06/07 03:31:00;;;;;;;3.50;1.15;;;22.30;55.50;;;;;;5071835;28;20039;-63
2021/06/07 03:33:28;;;;;;;3.13;1.30;;;22.30;55.20;;;;;;5072157;28;20040;-51
2021/06/07 03:35:56;;;;;;;2.70;1.30;;;22.20;55.40;;;;;;5075604;28;20024;-60
2021/06/07 03:38:26;;;;;;;4.78;1.52;;;22.30;54.30;;;;;;5075788;28;20070;-59
2021/06/07 03:40:55;;;;;;;2.85;1.35;;;22.20;53.50;;;;;;5075723;28;20036;-60
2021/06/07 03:43:26;;;;;;;2.58;1.30;;;22.10;55.50;;;;;;5076385;28;20036;-60
2021/06/07 03:45:54;;;;;;;2.88;1.52;;;22.20;55.70;;;;;;5075439;28;20021;-57
2021/06/07 03:48:22;;;;;;;3.25;1.30;;;22.10;55.30;;;;;;5075921;28;20040;-58
2021/06/07 03:50:50;;;;;;;3.60;1.13;;;22.10;55.10;;;;;;5075509;28;20377;-48
2021/06/07 03:53:18;;;;;;;6.50;1.20;;;22.10;55.70;;;;;;5075539;28;20047;-57
2021/06/07 03:55:45;;;;;;;2.35;1.17;;;22.00;54.00;;;;;;5040865;28;20032;-55
2021/06/07 03:58:13;;;;;;;2.35;1.15;;;22.00;55.40;;;;;;5075365;28;20032;-60
2021/06/07 04:00:41;;;;;;;2.38;0.90;;;22.10;52.70;;;;;;5074663;28;20120;-62
2021/06/07 04:03:11;;;;;;;3.97;1.20;;;22.00;52.50;;;;;;5075286;28;20029;-53
2021/06/07 04:05:39;;;;;;;3.38;1.13;;;21.70;55.50;;;;;;5075204;28;20150;-58
2021/06/07 04:08:09;;;;;;;5.28;1.75;;;21.50;56.60;;;;;;5075214;28;20017;-54
2021/06/07 04:10:36;;;;;;;1.92;0.95;;;21.40;54.20;;;;;;5074844;28;20027;-47
2021/06/07 04:13:04;;;;;;;1.38;0.90;;;21.20;58.00;;;;;;5074540;28;20121;-49
2021/06/07 04:15:32;;;;;;;3.85;1.27;;;21.10;58.40;;;;;;5075001;28;20024;-57
2021/06/07 04:17:59;;;;;;;2.03;0.80;;;20.90;58.80;;;;;;5075158;28;20021;-53
2021/06/07 04:20:29;;;;;;;2.25;1.02;;;20.90;58.60;;;;;;5074745;28;20028;-60
2021/06/07 04:22:57;;;;;;;2.45;1.00;;;20.90;59.40;;;;;;5057075;28;20024;-60
2021/06/07 04:25:26;;;;;;;1.92;0.98;;;21.10;58.90;;;;;;5075055;28;20039;-63
2021/06/07 04:27:55;;;;;;;1.48;0.70;;;21.00;59.00;;;;;;5075010;28;20067;-57
2021/06/07 04:30:24;;;;;;;3.08;0.80;;;21.00;56.10;;;;;;5074796;28;20025;-53
2021/06/07 04:32:52;;;;;;;1.73;0.80;;;21.00;57.20;;;;;;5074627;28;20036;-53
2021/06/07 04:35:22;;;;;;;3.42;1.15;;;21.10;57.70;;;;;;5075011;28;20025;-51
2021/06/07 04:37:51;;;;;;;1.42;0.82;;;21.10;58.90;;;;;;5056681;28;20100;-56
2021/06/07 04:40:21;;;;;;;2.13;1.00;;;21.10;58.60;;;;;;5074528;28;20029;-50
2021/06/07 04:42:49;;;;;;;3.47;0.73;;;21.10;55.60;;;;;;5074760;28;20025;-46
2021/06/07 04:45:18;;;;;;;1.52;0.90;;;21.10;57.80;;;;;;5073903;28;20029;-52
2021/06/07 04:47:46;;;;;;;8.15;1.35;;;21.20;58.50;;;;;;5074234;28;20020;-50
2021/06/07 04:50:15;;;;;;;3.25;1.30;;;21.30;57.40;;;;;;5074604;28;20040;-56
2021/06/07 04:52:59;;;;;;;1.73;0.90;;;21.40;57.30;;;;;;5073743;28;20139;-50
2021/06/07 04:55:47;;;;;;;3.95;0.75;;;21.40;57.70;;;;;;5074066;28;20093;-59
2021/06/07 04:58:25;;;;;;;4.82;0.80;;;21.50;56.60;;;;;;5056357;28;20028;-51
2021/06/07 05:00:58;;;;;;;2.58;1.33;;;21.50;57.60;;;;;;5064245;28;20033;-50
2021/06/07 05:03:26;;;;;;;1.15;0.80;;;21.50;57.70;;;;;;5071726;28;20691;-54
2021/06/07 05:05:58;;;;;;;1.08;0.80;;;21.50;57.40;;;;;;5069929;28;20029;-50
2021/06/07 05:08:27;;;;;;;4.45;0.60;;;21.50;57.30;;;;;;5070397;28;20025;-56
2021/06/07 05:10:54;;;;;;;4.45;0.82;;;21.50;57.40;;;;;;5070790;28;20036;-54
2021/06/07 05:13:22;;;;;;;2.33;0.80;;;21.50;57.50;;;;;;5070867;28;20490;-51
2021/06/07 05:15:50;;;;;;;5.90;1.08;;;21.40;57.30;;;;;;5067877;28;20033;-52
2021/06/07 05:18:17;;;;;;;2.83;0.80;;;21.40;57.10;;;;;;5070679;28;20104;-51
2021/06/07 05:20:45;;;;;;;1.33;0.75;;;21.30;57.60;;;;;;5070713;28;20067;-44
2021/06/07 05:23:13;;;;;;;2.67;0.95;;;21.10;58.10;;;;;;5070780;28;20020;-45
2021/06/07 05:25:42;;;;;;;7.72;1.25;;;20.90;58.90;;;;;;5066249;28;20092;-51
2021/06/07 05:28:12;;;;;;;2.03;0.80;;;21.00;59.30;;;;;;5070679;28;20043;-50
2021/06/07 05:30:41;;;;;;;2.63;1.23;;;20.90;59.30;;;;;;5070084;28;20095;-54
2021/06/07 05:33:09;;;;;;;2.72;0.90;;;20.90;59.20;;;;;;5070007;28;20028;-51
2021/06/07 05:35:41;;;;;;;2.42;0.80;;;21.00;59.10;;;;;;5064173;28;20031;-48
2021/06/07 05:38:11;;;;;;;1.80;0.73;;;20.90;59.00;;;;;;5067673;28;20494;-43
2021/06/07 05:40:40;;;;;;;1.27;0.73;;;21.00;58.50;;;;;;5067984;28;20398;-54
2021/06/07 05:43:07;;;;;;;2.80;1.08;;;21.00;58.40;;;;;;5067232;28;20028;-51
2021/06/07 05:45:35;;;;;;;6.68;1.25;;;20.90;58.50;;;;;;5066795;28;20040;-47
2021/06/07 05:48:04;;;;;;;1.25;0.68;;;20.80;59.00;;;;;;5069628;28;20055;-52
2021/06/07 05:50:33;;;;;;;3.38;1.65;;;20.60;59.60;;;;;;5069484;28;20036;-53
2021/06/07 05:53:02;;;;;;;4.97;1.40;;;20.40;60.10;;;;;;5070087;28;20076;-49
2021/06/07 05:55:32;;;;;;;5.13;1.30;;;20.20;60.60;;;;;;5066430;28;20471;-47
2021/06/07 05:58:03;;;;;;;7.13;1.00;;;20.10;61.20;;;;;;5068725;28;20097;-55
2021/06/07 06:00:34;;;;;;;1.55;0.98;;;19.90;61.80;;;;;;5070055;28;20056;-50
2021/06/07 06:03:01;;;;;;;10.18;1.10;;;19.70;62.20;;;;;;5070362;28;20035;-50
2021/06/07 06:05:29;;;;;;;1.42;0.95;;;19.70;62.60;;;;;;5066144;28;20020;-51
2021/06/07 06:07:56;;;;;;;1.23;0.80;;;19.60;63.00;;;;;;5069618;28;20024;-51
2021/06/07 06:10:24;;;;;;;3.35;1.20;;;19.50;63.80;;;;;;5069920;28;20478;-50
2021/06/07 06:12:52;;;;;;;2.78;1.08;;;19.40;64.10;;;;;;5069324;28;20487;-56
2021/06/07 06:15:24;;;;;;;2.50;0.90;;;19.30;64.60;;;;;;5066162;28;20025;-49
2021/06/07 06:17:51;;;;;;;;;;;19.20;65.00;;;;;;5070568;28;20032;-43
2021/06/07 06:20:19;;;;;;;11.15;1.75;;;19.20;65.30;;;;;;5051710;28;19915;-46
2021/06/07 06:22:46;;;;;;;2.30;0.80;;;19.10;65.80;;;;;;5069161;28;20058;-48
2021/06/07 06:25:16;;;;;;;4.00;1.08;;;19.10;66.10;;;;;;5066427;28;20056;-47
2021/06/07 06:27:44;;;;;;;5.30;2.15;;;18.90;66.50;;;;;;5069258;28;20046;-47
2021/06/07 06:30:18;;;;;;;6.35;0.98;;;18.90;66.90;;;;;;5069049;28;20119;-57
2021/06/07 06:32:49;;;;;;;1.13;0.77;;;18.90;67.10;;;;;;5050502;28;20021;-54
2021/06/07 06:35:17;;;;;;;3.65;0.95;;;18.80;67.30;;;;;;5065897;28;20479;-46
2021/06/07 06:37:46;;;;;;;1.55;0.70;;;18.70;67.60;;;;;;5068930;28;20041;-52
2021/06/07 06:40:22;;;;;;;2.30;0.93;;;18.70;67.90;;;;;;5069409;28;20028;-49
2021/06/07 06:42:54;;;;;;;2.80;1.10;;;18.60;68.20;;;;;;5069374;28;20034;-53
2021/06/07 06:45:22;;;;;;;2.85;1.20;;;18.50;68.50;;;;;;5066151;28;20497;-49
2021/06/07 06:47:59;;;;;;;2.20;1.00;;;18.50;68.60;;;;;;5069896;28;20104;-49
2021/06/07 06:50:34;;;;;;;2.75;0.90;;;18.50;68.80;;;;;;5068396;28;20020;-58
2021/06/07 06:53:11;;;;;;;2.30;0.88;;;18.50;68.90;;;;;;5069176;28;20493;-50
2021/06/07 06:55:39;;;;;;;4.85;1.23;;;18.50;69.00;;;;;;5047905;28;20036;-55
2021/06/07 06:58:10;;;;;;;3.50;1.08;;;18.50;69.20;;;;;;5068540;28;20016;-48
2021/06/07 07:00:39;;;;;;;5.15;1.23;;;18.40;69.70;;;;;;5070329;28;20040;-59
2021/06/07 07:03:13;;;;;;;3.88;1.10;;;18.40;69.20;;;;;;5071863;28;20039;-55
2021/06/07 07:05:41;;;;;;;4.13;1.73;;;18.40;69.30;;;;;;5054354;28;20046;-50
2021/06/07 07:08:09;;;;;;;4.35;2.53;;;18.40;69.40;;;;;;5071429;28;20028;-51
2021/06/07 07:10:38;;;;;;;5.70;3.55;;;18.30;69.40;;;;;;5071576;28;20075;-55
2021/06/07 07:13:06;;;;;;;9.80;3.13;;;18.30;69.70;;;;;;5071531;28;20091;-58
2021/06/07 07:15:34;;;;;;;4.45;3.38;;;18.20;70.10;;;;;;5071955;28;20024;-61
2021/06/07 07:18:02;;;;;;;8.25;4.25;;;18.10;70.10;;;;;;5053439;28;20556;-61
2021/06/07 07:20:29;;;;;;;7.72;3.72;;;18.10;70.40;;;;;;5071835;28;20028;-63
2021/06/07 07:22:57;;;;;;;3.85;3.25;;;18.10;70.70;;;;;;5072171;28;20048;-55
2021/06/07 07:25:24;;;;;;;8.75;4.65;;;18.10;70.60;;;;;;5071600;28;20048;-63
2021/06/07 07:27:52;;;;;;;6.68;4.90;;;18.10;70.90;;;;;;5070914;28;20078;-63
2021/06/07 07:30:22;;;;;;;6.47;5.50;;;18.00;70.90;;;;;;5072186;28;20035;-64
2021/06/07 07:32:51;;;;;;;21.35;4.10;;;18.00;71.20;;;;;;5071961;28;20119;-65
2021/06/07 07:35:19;;;;;;;12.63;4.53;;;17.80;71.70;;;;;;5071744;28;20037;-66
2021/06/07 07:37:46;;;;;;;12.95;6.57;;;17.80;72.30;;;;;;5071410;28;20048;-59
2021/06/07 07:40:17;;;;;;;13.20;5.07;;;17.70;72.70;;;;;;5053555;28;20364;-68
2021/06/07 07:42:45;;;;;;;10.25;5.80;;;17.80;72.40;;;;;;5071161;28;20024;-63
2021/06/07 07:45:15;;;;;;;10.35;3.50;;;17.80;72.40;;;;;;5071945;28;20048;-62
2021/06/07 07:47:43;;;;;;;15.13;7.75;;;17.70;72.90;;;;;;5071412;28;20097;-64
2021/06/07 07:50:15;;;;;;;28.58;8.30;;;17.70;73.80;;;;;;5071352;28;20024;-64
2021/06/07 07:52:42;;;;;;;15.40;4.80;;;17.60;73.50;;;;;;5071141;28;20483;-63
2021/06/07 07:55:15;;;;;;;12.13;4.43;;;17.50;74.10;;;;;;5071204;28;20041;-54
2021/06/07 07:57:42;;;;;;;;;;;17.50;74.40;;;;;;5071924;28;20104;-65
2021/06/07 08:00:11;;;;;;;10.02;3.38;;;17.40;75.10;;;;;;5071360;28;19958;-64
2021/06/07 08:02:39;;;;;;;11.80;4.38;;;17.40;75.00;;;;;;5070793;28;20024;-58
2021/06/07 08:05:08;;;;;;;9.63;3.53;;;17.40;75.20;;;;;;5072034;28;20055;-66
2021/06/07 08:07:36;;;;;;;12.43;4.93;;;17.30;75.70;;;;;;5071840;28;20040;-62
2021/06/07 08:10:05;;;;;;;8.02;5.28;;;17.40;75.90;;;;;;5071647;28;20424;-58
2021/06/07 08:12:32;;;;;;;15.57;5.07;;;17.40;75.50;;;;;;5070934;28;20056;-62
2021/06/07 08:15:01;;;;;;;16.45;4.70;;;17.30;75.90;;;;;;5053226;28;20029;-62
2021/06/07 08:17:28;;;;;;;13.45;5.95;;;17.30;76.10;;;;;;5071794;28;20100;-62
2021/06/07 08:19:55;;;;;;;12.23;4.05;;;17.30;76.40;;;;;;5071316;28;20028;-65
2021/06/07 08:22:23;;;;;;;11.98;3.92;;;17.30;76.20;;;;;;5074033;28;20027;-58
2021/06/07 08:24:51;;;;;;;13.90;6.38;;;17.30;76.30;;;;;;5074333;28;20016;-61
2021/06/07 08:27:18;;;;;;;9.32;4.43;;;17.40;75.60;;;;;;5074111;28;20021;-54
2021/06/07 08:29:46;;;;;;;8.77;4.47;;;17.30;75.20;;;;;;5075301;28;20013;-50
2021/06/07 08:32:13;;;;;;;9.30;4.43;;;17.30;75.90;;;;;;5075017;28;20030;-54
2021/06/07 08:34:41;;;;;;;12.95;3.00;;;17.30;75.90;;;;;;5074563;28;20059;-61
2021/06/07 08:37:08;;;;;;;9.05;2.75;;;17.20;75.30;;;;;;5075007;28;20103;-56
2021/06/07 08:39:35;;;;;;;7.30;3.13;;;17.20;75.60;;;;;;5074382;28;20432;-59
2021/06/07 08:42:03;;;;;;;5.88;2.75;;;17.10;74.30;;;;;;5074503;28;20029;-55
2021/06/07 08:44:31;;;;;;;8.30;2.97;;;17.00;74.10;;;;;;5056766;28;20107;-52
2021/06/07 08:46:58;;;;;;;30.52;3.50;;;16.90;76.00;;;;;;5074801;28;20373;-53
2021/06/07 08:49:26;;;;;;;7.55;3.00;;;16.90;74.20;;;;;;5074823;28;20383;-58
2021/06/07 08:51:54;;;;;;;8.02;2.90;;;17.00;75.50;;;;;;5074599;28;20052;-58
2021/06/07 08:54:21;;;;;;;6.75;3.80;;;17.00;77.00;;;;;;5074515;28;20029;-62
2021/06/07 08:56:49;;;;;;;7.47;4.05;;;17.00;76.20;;;;;;5064357;28;20056;-51
2021/06/07 08:59:16;;;;;;;13.40;4.43;;;16.90;74.90;;;;;;5071501;28;20024;-53
2021/06/07 09:01:45;;;;;;;9.82;3.30;;;17.00;75.00;;;;;;5070027;28;20103;-51
2021/06/07 09:04:24;;;;;;;13.23;3.78;;;17.00;74.10;;;;;;5068849;28;20069;-53
2021/06/07 09:06:52;;;;;;;11.88;4.05;;;17.00;74.30;;;;;;5063566;28;20028;-55
2021/06/07 09:09:23;;;;;;;9.82;2.25;;;17.00;75.30;;;;;;5066698;28;20056;-55
2021/06/07 09:12:04;;;;;;;8.18;2.22;;;16.90;73.50;;;;;;5066141;28;20484;-50
2021/06/07 09:14:34;;;;;;;18.23;3.22;;;16.90;73.90;;;;;;5067560;28;20045;-53
2021/06/07 09:17:14;;;;;;;7.25;3.05;;;17.00;74.90;;;;;;5072381;28;20031;-52
2021/06/07 09:19:41;;;;;;;15.10;4.00;;;17.00;74.90;;;;;;5072931;28;20082;-46
2021/06/07 09:22:29;;;;;;;9.07;4.30;;;17.00;74.90;;;;;;5071842;28;20025;-51
2021/06/07 09:25:18;;;;;;;15.60;4.07;;;17.00;79.20;;;;;;5069972;28;20029;-49
2021/06/07 09:28:08;;;;;;;9.55;3.88;;;17.00;73.80;;;;;;5071079;28;20021;-55
2021/06/07 09:30:50;;;;;;;13.77;4.65;;;17.10;75.10;;;;;;5068084;28;20024;-52
2021/06/07 09:33:42;;;;;;;17.58;4.43;;;17.20;79.70;;;;;;5069447;28;20032;-49
2021/06/07 09:36:20;;;;;;;39.47;6.25;;;17.30;74.50;;;;;;5071314;28;20024;-58
2021/06/07 09:38:58;;;;;;;26.60;5.32;;;17.20;73.50;;;;;;5069964;28;20032;-51
2021/06/07 09:41:33;;;;;;;15.98;6.05;;;17.20;78.10;;;;;;5069035;28;20036;-50
2021/06/07 09:44:03;;;;;;;16.45;5.15;;;17.30;72.60;;;;;;5069678;28;20144;-46
2021/06/07 09:46:32;;;;;;;25.35;7.88;;;17.20;72.50;;;;;;5073580;28;20020;-53
2021/06/07 09:49:11;;;;;;;36.03;8.75;;;17.30;79.10;;;;;;5074195;28;20028;-56
2021/06/07 09:51:41;;;;;;;22.15;7.68;;;17.40;80.30;;;;;;5073893;28;20044;-59
2021/06/07 09:54:14;;;;;;;20.00;7.97;;;17.50;80.90;;;;;;5073849;28;20463;-51
2021/06/07 09:56:56;;;;;;;30.50;8.07;;;17.60;81.60;;;;;;5073338;28;20028;-51
2021/06/07 09:59:33;;;;;;;25.30;7.43;;;17.60;81.70;;;;;;5073689;28;20035;-52
2021/06/07 10:02:03;;;;;;;23.90;7.25;;;17.70;81.90;;;;;;5072959;28;20150;-50
2021/06/07 10:04:55;;;;;;;19.13;6.93;;;17.70;81.30;;;;;;5072477;28;20406;-57
2021/06/07 10:07:23;;;;;;;;;;;17.70;81.90;;;;;;5073702;28;20107;-59
2021/06/07 10:10:11;;;;;;;22.50;6.35;;;17.60;83.40;;;;;;5072784;28;19912;-46
2021/06/07 10:12:42;;;;;;;30.63;6.55;;;17.70;84.10;;;;;;5064833;28;20040;-54
2021/06/07 10:15:12;;;;;;;26.38;6.00;;;17.70;84.10;;;;;;5071125;28;20028;-39
2021/06/07 10:17:40;;;;;;;24.35;6.80;;;17.80;84.10;;;;;;5071177;28;20024;-49
2021/06/07 10:22:37;;;;;;;25.95;6.45;;;17.80;83.70;;;;;;5072223;28;20375;-60
2021/06/07 10:25:07;;;;;;;18.38;5.80;;;17.80;82.90;;;;;;5073175;28;20083;-47
2021/06/07 10:27:35;;;;;;;13.48;4.70;;;17.80;83.40;;;;;;5073109;28;20020;-52
2021/06/07 10:30:03;;;;;;;16.73;5.57;;;17.70;81.10;;;;;;5072577;28;20482;-51
2021/06/07 10:32:33;;;;;;;15.00;5.50;;;17.70;83.80;;;;;;5054554;28;20029;-62
2021/06/07 10:35:04;;;;;;;35.72;6.20;;;17.70;83.20;;;;;;5071905;28;20081;-43
2021/06/07 10:37:33;;;;;;;19.25;5.78;;;17.70;83.30;;;;;;5063911;28;20106;-40
2021/06/07 10:40:19;;;;;;;30.35;5.55;;;17.70;82.60;;;;;;5066007;28;20029;-38
2021/06/07 10:43:04;;;;;;;8.02;4.32;;;17.70;81.30;;;;;;5069176;28;20047;-48
2021/06/07 10:45:37;;;;;;;24.15;6.85;;;17.70;80.10;;;;;;5067828;28;20473;-41
2021/06/07 10:48:07;;;;;;;21.67;7.40;;;17.60;79.80;;;;;;5053661;28;20352;-50
2021/06/07 10:50:43;;;;;;;17.10;6.97;;;17.60;79.80;;;;;;5068275;28;20020;-51
2021/06/07 10:53:23;;;;;;;23.05;6.40;;;17.50;77.30;;;;;;5070859;28;20029;-49
2021/06/07 10:56:04;;;;;;;22.48;6.68;;;17.50;80.20;;;;;;5071968;28;20024;-49
2021/06/07 10:58:32;;;;;;;25.65;10.02;;;17.50;81.20;;;;;;5068374;28;20072;-53
2021/06/07 11:01:02;;;;;;;34.72;15.68;;;17.50;81.80;;;;;;5069844;28;20105;-59
2021/06/07 11:03:33;;;;;;;42.75;18.50;;;17.40;81.30;;;;;;5067821;28;20031;-50
2021/06/07 11:06:06;;;;;;;45.35;21.70;;;17.40;81.30;;;;;;5071340;28;20085;-55
2021/06/07 11:08:36;;;;;;;35.67;16.48;;;17.40;81.00;;;;;;5071503;28;20401;-50
2021/06/07 11:11:17;;;;;;;41.63;19.63;;;17.30;81.40;;;;;;5070690;28;20025;-51
2021/06/07 11:13:56;;;;;;;48.30;22.48;;;17.30;81.50;;;;;;5068969;28;20147;-56
2021/06/07 11:16:32;;;;;;;62.42;28.85;;;17.30;81.50;;;;;;5071049;28;20028;-54
2021/06/07 11:19:04;;;;;;;61.45;30.17;;;17.30;81.10;;;;;;5053583;28;20031;-45
2021/06/07 11:21:45;;;;;;;70.07;33.95;;;17.30;81.10;;;;;;5066352;28;20024;-46
2021/06/07 11:24:38;;;;;;;57.75;28.38;;;17.30;81.60;;;;;;5071256;28;20028;-56
2021/06/07 11:27:08;;;;;;;65.22;32.60;;;17.20;80.00;;;;;;5067819;28;20382;-57
2021/06/07 11:29:36;;;;;;;64.25;33.45;;;17.20;81.70;;;;;;5067700;28;20025;-47
2021/06/07 11:32:03;;;;;;;73.25;37.88;;;17.20;81.10;;;;;;5070031;28;20482;-48
2021/06/07 11:34:41;;;;;;;80.32;40.28;;;17.20;81.40;;;;;;5070943;28;20033;-55
2021/06/07 11:37:10;;;;;;;76.90;36.67;;;17.20;81.00;;;;;;5067914;28;20110;-50
2021/06/07 11:39:43;;;;;;;77.43;35.05;;;17.10;80.60;;;;;;5071279;28;20024;-58
2021/06/07 11:42:18;;;;;;;79.57;35.92;;;17.10;81.00;;;;;;5068667;28;20430;-49
2021/06/07 11:44:50;;;;;;;68.47;36.72;;;17.10;81.10;;;;;;5068152;28;20501;-57
2021/06/07 11:47:26;;;;;;;67.13;33.88;;;17.00;80.80;;;;;;5069972;28;20071;-49
2021/06/07 11:50:17;;;;;;;77.70;36.53;;;17.00;80.50;;;;;;5068719;28;20507;-57
2021/06/07 11:52:52;;;;;;;74.53;38.42;;;17.00;81.30;;;;;;5067839;28;20033;-50
2021/06/07 11:55:36;;;;;;;78.72;37.78;;;17.00;81.20;;;;;;5069499;28;20025;-59
2021/06/07 11:58:25;;;;;;;73.00;37.00;;;17.00;81.00;;;;;;5072414;28;20666;-55
2021/06/07 12:01:01;;;;;;;58.53;34.13;;;17.00;80.90;;;;;;5066074;28;20025;-57
2021/06/07 12:03:30;;;;;;;60.88;34.45;;;17.00;80.70;;;;;;5073347;28;20088;-47
2021/06/07 12:06:01;;;;;;;76.82;36.97;;;17.00;80.40;;;;;;5073368;28;20093;-47
2021/06/07 12:08:28;;;;;;;69.63;36.17;;;17.00;80.80;;;;;;5073219;28;20094;-48
2021/06/07 12:10:58;;;;;;;65.57;35.20;;;16.90;80.40;;;;;;5068619;28;20089;-50
2021/06/07 12:13:34;;;;;;;63.95;32.90;;;17.00;80.50;;;;;;5073151;28;20048;-48
2021/06/07 12:16:08;;;;;;;66.70;31.85;;;16.90;80.10;;;;;;5073287;28;20020;-48
2021/06/07 12:18:42;;;;;;;66.82;33.13;;;16.90;79.80;;;;;;5071507;28;20814;-48
2021/06/07 12:21:11;;;;;;;58.92;31.35;;;16.90;80.30;;;;;;5067901;28;20383;-53
2021/06/07 12:23:47;;;;;;;61.53;32.47;;;16.90;79.60;;;;;;5072740;28;20029;-48
2021/06/07 12:29:35;;;;;;;59.75;30.88;;;17.00;79.40;;;;;;5072374;28;20104;-48
2021/06/07 12:32:11;;;;;;;58.65;31.02;;;16.90;79.50;;;;;;5066646;28;20025;-46
2021/06/07 12:34:58;;;;;;;60.78;30.50;;;16.90;79.40;;;;;;5072050;28;20051;-58
2021/06/07 12:37:44;;;;;;;51.70;28.63;;;16.90;79.30;;;;;;5069150;28;20024;-51
2021/06/07 12:40:14;;;;;;;50.75;27.75;;;16.90;79.00;;;;;;5069142;28;20112;-52
2021/06/07 12:42:43;;;;;;;54.53;27.52;;;16.90;79.10;;;;;;5069367;28;20039;-55
2021/06/07 12:45:15;;;;;;;51.90;28.50;;;16.90;78.80;;;;;;5072000;28;20025;-49
2021/06/07 12:47:43;;;;;;;45.60;26.23;;;16.80;78.70;;;;;;5072461;28;20057;-48
2021/06/07 12:50:12;;;;;;;50.20;27.50;;;16.80;78.90;;;;;;5070609;28;20356;-47
2021/06/07 12:52:39;;;;;;;48.08;25.35;;;16.80;78.90;;;;;;5051592;28;20025;-44
2021/06/07 12:55:08;;;;;;;39.03;24.45;;;16.80;78.40;;;;;;5072299;28;20037;-50
2021/06/07 12:57:36;;;;;;;43.20;25.45;;;16.70;78.70;;;;;;5072163;28;20121;-54
2021/06/07 13:00:23;;;;;;;46.60;25.15;;;16.70;78.70;;;;;;5071252;28;20032;-51
2021/06/07 13:02:50;;;;;;;43.30;24.73;;;16.70;79.00;;;;;;5072090;28;20029;-46
2021/06/07 13:05:37;;;;;;;44.50;23.38;;;16.70;78.70;;;;;;5072220;28;20033;-51
2021/06/07 13:08:14;;;;;;;42.90;23.80;;;16.70;79.00;;;;;;5068588;28;20036;-52